Time;durP1;ratioP1;P1;durP2;ratioP2;P2;SDS_P1;SDS_P2;PMS_P1;PMS_P2;Temp;Humidity;BMP_temperature;BMP_pressure;BME280_temperature;BME280_humidity;BME280_pressure;Samples;Min_cycle;Max_cycle;Signal;HPM_P1;HPM_P2
2023/05/12 00:01:59;;;;;;;5.33;4.70;;;13.60;99.90;;;;;;5046049;28;20631;-59
2023/05/12 00:04:25;;;;;;;7.77;4.87;;;13.70;99.90;;;;;;5027035;28;20264;-60
2023/05/12 00:06:52;;;;;;;7.63;5.47;;;13.80;99.90;;;;;;5029207;28;20226;-60
2023/05/12 00:09:19;;;;;;;6.73;5.20;;;13.60;99.90;;;;;;5032161;28;22188;-60
2023/05/12 00:11:47;;;;;;;6.60;5.00;;;13.60;99.90;;;;;;5048245;28;20226;-60
2023/05/12 00:14:15;;;;;;;7.73;6.20;;;13.50;99.90;;;;;;5043926;28;20282;-60
2023/05/12 00:16:42;;;;;;;5.63;4.60;;;13.50;99.90;;;;;;5048097;28;20215;-60
2023/05/12 00:19:09;;;;;;;6.27;4.87;;;13.40;99.90;;;;;;5046646;28;20214;-60
2023/05/12 00:21:35;;;;;;;5.93;5.30;;;13.50;99.90;;;;;;5060603;28;20669;-60
2023/05/12 00:24:02;;;;;;;6.80;5.53;;;13.50;99.90;;;;;;5045461;28;20199;-59
2023/05/12 00:26:29;;;;;;;6.73;4.97;;;13.40;99.90;;;;;;5045727;28;20226;-60
2023/05/12 00:28:56;;;;;;;8.33;5.30;;;13.40;99.90;;;;;;5045217;28;20292;-60
2023/05/12 00:31:23;;;;;;;7.97;4.83;;;13.30;99.90;;;;;;5046589;28;20671;-60
2023/05/12 00:33:50;;;;;;;5.33;4.83;;;13.40;99.90;;;;;;5043731;28;20290;-61
2023/05/12 00:36:17;;;;;;;6.13;4.67;;;13.30;99.90;;;;;;5047319;28;20192;-60
2023/05/12 00:38:43;;;;;;;10.93;6.27;;;13.30;99.90;;;;;;5046681;28;20213;-60
2023/05/12 00:41:10;;;;;;;6.33;4.83;;;13.20;99.90;;;;;;5047491;28;20196;-60
2023/05/12 00:43:37;;;;;;;5.37;4.83;;;13.10;99.90;;;;;;5039820;28;20198;-60
2023/05/12 00:46:05;;;;;;;5.90;4.80;;;13.30;99.90;;;;;;5046215;28;20237;-60
2023/05/12 00:48:32;;;;;;;5.80;4.60;;;13.20;99.90;;;;;;5041693;28;20259;-60
2023/05/12 00:51:01;;;;;;;5.77;4.77;;;13.20;99.90;;;;;;5041017;28;20288;-60
2023/05/12 00:53:29;;;;;;;6.17;4.53;;;13.10;99.90;;;;;;5042894;28;20237;-60
2023/05/12 00:56:15;;;;;;;6.87;5.03;;;13.10;99.90;;;;;;5044278;28;21256;-62
2023/05/12 00:58:42;;;;;;;6.57;4.43;;;13.10;99.90;;;;;;5033285;28;20264;-60
2023/05/12 01:01:09;;;;;;;7.00;4.57;;;12.90;99.90;;;;;;5049317;28;20257;-60
2023/05/12 01:03:36;;;;;;;6.90;4.83;;;12.80;99.90;;;;;;5029226;28;20248;-60
2023/05/12 01:06:31;;;;;;;6.03;4.93;;;12.90;99.90;;;;;;5023523;28;20237;-59
2023/05/12 01:08:59;;;;;;;5.93;4.93;;;12.90;99.90;;;;;;5038545;28;20244;-60
2023/05/12 01:11:26;;;;;;;6.63;4.80;;;12.80;99.90;;;;;;5033008;28;20287;-60
2023/05/12 01:13:53;;;;;;;5.73;4.33;;;12.80;99.90;;;;;;5040367;28;20207;-59
2023/05/12 01:16:28;;;;;;;7.43;4.33;;;12.80;99.90;;;;;;5043662;28;20296;-59
2023/05/12 01:18:55;;;;;;;8.33;4.80;;;12.80;99.90;;;;;;5041956;28;20293;-59
2023/05/12 01:21:22;;;;;;;5.70;4.77;;;12.90;99.90;;;;;;5042887;28;20677;-60
2023/05/12 01:23:58;;;;;;;6.10;4.07;;;13.00;99.90;;;;;;5044058;28;20719;-60
2023/05/12 01:26:25;;;;;;;5.60;4.23;;;12.70;99.90;;;;;;5044446;28;20227;-60
2023/05/12 01:28:53;;;;;;;7.60;4.43;;;12.80;99.90;;;;;;5040599;28;20272;-59
2023/05/12 01:31:20;;;;;;;7.17;4.87;;;12.80;99.90;;;;;;5041693;28;20314;-59
2023/05/12 01:33:47;;;;;;;5.87;3.97;;;12.60;99.90;;;;;;5044817;28;20311;-59
2023/05/12 01:36:14;;;;;;;5.50;4.13;;;12.60;99.90;;;;;;5042937;28;20230;-60
2023/05/12 01:38:41;;;;;;;6.37;4.47;;;12.60;99.90;;;;;;5044312;28;20267;-60
2023/05/12 01:41:08;;;;;;;7.63;4.50;;;12.60;99.90;;;;;;5047750;28;20254;-60
2023/05/12 01:43:34;;;;;;;5.47;3.90;;;12.60;99.90;;;;;;5045135;28;20206;-60
2023/05/12 01:46:01;;;;;;;7.53;4.07;;;12.70;99.90;;;;;;5048705;28;20213;-60
2023/05/12 01:48:28;;;;;;;6.80;4.33;;;12.80;99.90;;;;;;5040178;28;20205;-60
2023/05/12 01:50:58;;;;;;;6.07;4.27;;;12.80;99.90;;;;;;5042240;28;20201;-60
2023/05/12 01:53:24;;;;;;;7.23;3.90;;;12.80;99.90;;;;;;5041511;28;20192;-60
2023/05/12 01:55:51;;;;;;;3.93;3.53;;;12.90;99.90;;;;;;5041546;28;20838;-60
2023/05/12 01:58:19;;;;;;;5.40;3.63;;;12.60;99.90;;;;;;5049272;28;20197;-59
2023/05/12 02:00:46;;;;;;;5.00;3.60;;;12.50;99.90;;;;;;5047911;28;20293;-60
2023/05/12 02:03:13;;;;;;;5.57;3.80;;;12.50;99.90;;;;;;5038353;28;20569;-60
2023/05/12 02:05:40;;;;;;;5.10;3.80;;;12.60;99.90;;;;;;5039997;28;20236;-60
2023/05/12 02:08:07;;;;;;;5.57;3.13;;;12.80;99.90;;;;;;5040556;28;20210;-60
2023/05/12 02:10:33;;;;;;;5.37;3.80;;;12.70;99.90;;;;;;5039002;28;20272;-60
2023/05/12 02:13:01;;;;;;;5.40;3.97;;;12.70;99.90;;;;;;5047640;28;20335;-60
2023/05/12 02:15:28;;;;;;;5.77;3.50;;;12.60;99.90;;;;;;5030341;28;20219;-60
2023/05/12 02:17:55;;;;;;;4.93;3.83;;;12.70;99.90;;;;;;5041834;28;20283;-60
2023/05/12 02:20:23;;;;;;;3.90;3.30;;;12.70;99.90;;;;;;5047319;28;20608;-60
2023/05/12 02:22:49;;;;;;;5.03;3.80;;;12.70;99.90;;;;;;5035637;28;20235;-60
2023/05/12 02:25:16;;;;;;;4.73;3.43;;;12.80;99.90;;;;;;5043819;28;20258;-60
2023/05/12 02:27:43;;;;;;;6.60;3.70;;;12.60;99.90;;;;;;5035171;28;20224;-60
2023/05/12 02:30:10;;;;;;;4.20;2.83;;;12.70;99.90;;;;;;5044265;28;20221;-60
2023/05/12 02:32:37;;;;;;;4.10;3.60;;;12.50;99.90;;;;;;5040526;28;20966;-61
2023/05/12 02:35:05;;;;;;;4.40;3.53;;;12.60;99.90;;;;;;5041969;28;20196;-61
2023/05/12 02:37:32;;;;;;;4.40;3.20;;;12.50;99.90;;;;;;5045778;28;20716;-64
2023/05/12 02:39:59;;;;;;;4.40;3.73;;;12.50;99.90;;;;;;5043457;28;20330;-60
2023/05/12 02:42:32;;;;;;;4.67;3.43;;;12.50;99.90;;;;;;5046560;28;20217;-61
2023/05/12 02:44:59;;;;;;;5.83;3.57;;;12.40;99.90;;;;;;5029471;28;20209;-61
2023/05/12 02:47:30;;;;;;;4.20;3.10;;;12.50;99.90;;;;;;5061482;28;20266;-60
2023/05/12 02:49:57;;;;;;;4.33;3.37;;;12.60;99.90;;;;;;5045966;28;20224;-60
2023/05/12 02:52:23;;;;;;;4.23;2.97;;;12.50;99.90;;;;;;5058467;28;20203;-60
2023/05/12 02:54:50;;;;;;;4.00;3.17;;;12.60;99.90;;;;;;5044419;28;20258;-60
2023/05/12 02:57:17;;;;;;;4.53;2.77;;;12.40;99.90;;;;;;5046625;28;20568;-60
2023/05/12 02:59:44;;;;;;;4.50;3.20;;;12.40;99.90;;;;;;5047439;28;20223;-61
2023/05/12 03:02:11;;;;;;;4.20;3.20;;;12.50;99.90;;;;;;5038142;28;20214;-60
2023/05/12 03:04:38;;;;;;;4.27;2.93;;;12.40;99.90;;;;;;5042983;28;20224;-60
2023/05/12 03:07:06;;;;;;;4.43;3.17;;;12.40;99.90;;;;;;5044616;28;20212;-60
2023/05/12 03:09:33;;;;;;;3.43;2.70;;;12.50;99.90;;;;;;5059147;28;20216;-60
2023/05/12 03:12:00;;;;;;;4.33;3.20;;;12.50;99.90;;;;;;5040833;28;20287;-60
2023/05/12 03:14:27;;;;;;;3.73;2.83;;;12.40;99.90;;;;;;5043799;28;20243;-60
2023/05/12 03:16:54;;;;;;;4.13;3.23;;;12.40;99.90;;;;;;5043855;28;20300;-60
2023/05/12 03:19:21;;;;;;;4.27;2.80;;;12.50;99.90;;;;;;5044109;28;20214;-60
2023/05/12 03:21:48;;;;;;;3.43;2.77;;;12.40;99.90;;;;;;5042001;28;20236;-60
2023/05/12 03:24:14;;;;;;;3.83;3.03;;;12.40;99.90;;;;;;5043233;28;20648;-59
2023/05/12 03:26:41;;;;;;;3.37;3.07;;;12.40;99.90;;;;;;5044922;28;20232;-59
2023/05/12 03:29:08;;;;;;;4.00;3.10;;;12.30;99.90;;;;;;5043877;28;20241;-62
2023/05/12 03:31:35;;;;;;;4.33;3.00;;;12.30;99.90;;;;;;5041083;28;20196;-59
2023/05/12 03:34:02;;;;;;;3.93;3.03;;;12.30;99.90;;;;;;5046086;28;20216;-59
2023/05/12 03:36:29;;;;;;;6.53;3.03;;;12.30;99.90;;;;;;5043835;28;20258;-59
2023/05/12 03:38:56;;;;;;;5.30;3.30;;;12.30;99.90;;;;;;5045997;28;20204;-59
2023/05/12 03:41:23;;;;;;;6.10;3.60;;;12.30;99.90;;;;;;5044888;28;20276;-59
2023/05/12 03:43:50;;;;;;;3.83;3.27;;;12.20;99.90;;;;;;5041217;28;20614;-59
2023/05/12 03:46:17;;;;;;;5.37;3.53;;;12.20;99.90;;;;;;5044147;28;20588;-60
2023/05/12 03:48:44;;;;;;;5.97;4.00;;;12.30;99.90;;;;;;5039848;28;20225;-60
2023/05/12 03:51:11;;;;;;;8.30;4.90;;;12.20;99.90;;;;;;5045996;28;20227;-60
2023/05/12 03:53:44;;;;;;;7.23;4.43;;;12.20;99.90;;;;;;5044251;28;20252;-59
2023/05/12 03:56:11;;;;;;;8.87;4.60;;;12.20;99.90;;;;;;5030220;28;20218;-59
2023/05/12 03:58:38;;;;;;;8.53;5.30;;;12.30;99.90;;;;;;5044466;28;20278;-59
2023/05/12 04:01:05;;;;;;;10.23;5.03;;;12.20;99.90;;;;;;5037018;28;20306;-59
2023/05/12 04:03:32;;;;;;;6.07;4.37;;;12.20;99.90;;;;;;5021231;28;20486;-60
2023/05/12 04:06:03;;;;;;;8.20;5.57;;;12.20;99.90;;;;;;5043670;28;20205;-59
2023/05/12 04:08:30;;;;;;;8.87;5.37;;;12.20;99.90;;;;;;5050156;28;20251;-59
2023/05/12 04:10:58;;;;;;;10.13;5.63;;;12.10;99.90;;;;;;5043927;28;20214;-59
2023/05/12 04:13:25;;;;;;;9.93;6.03;;;12.10;99.90;;;;;;5043096;28;20645;-59
2023/05/12 04:15:56;;;;;;;8.77;5.37;;;12.10;99.90;;;;;;5029531;28;20598;-59
2023/05/12 04:18:24;;;;;;;10.70;6.87;;;12.10;99.90;;;;;;5021568;28;20706;-59
2023/05/12 04:20:52;;;;;;;11.17;6.40;;;12.10;99.90;;;;;;5028314;28;20213;-59
2023/05/12 04:23:19;;;;;;;12.43;6.80;;;12.20;99.90;;;;;;5043394;28;20231;-59
2023/05/12 04:25:46;;;;;;;13.23;7.30;;;12.20;99.90;;;;;;5023270;28;20209;-59
2023/05/12 04:28:13;;;;;;;12.00;7.17;;;12.10;99.90;;;;;;5028843;28;20204;-58
2023/05/12 04:30:41;;;;;;;11.23;6.80;;;12.10;99.90;;;;;;5038436;28;20224;-59
2023/05/12 04:33:08;;;;;;;13.73;8.00;;;12.10;99.90;;;;;;5038732;28;20350;-59
2023/05/12 04:35:36;;;;;;;15.10;7.73;;;12.20;99.90;;;;;;5028399;28;20205;-59
2023/05/12 04:38:03;;;;;;;15.97;8.07;;;12.20;99.90;;;;;;5033963;28;20205;-59
2023/05/12 04:40:30;;;;;;;15.53;8.73;;;12.20;99.90;;;;;;5038882;28;20666;-58
2023/05/12 04:43:00;;;;;;;15.73;9.47;;;12.30;99.90;;;;;;5041683;28;20218;-60
2023/05/12 04:45:27;;;;;;;18.53;10.33;;;12.20;99.90;;;;;;5040237;28;20738;-62
2023/05/12 04:47:55;;;;;;;18.33;9.57;;;12.20;99.90;;;;;;5044014;28;20209;-61
2023/05/12 04:50:22;;;;;;;16.20;9.07;;;12.30;99.90;;;;;;5039966;28;20259;-61
2023/05/12 04:52:48;;;;;;;22.27;11.03;;;12.30;99.90;;;;;;5045895;28;20292;-61
2023/05/12 04:55:15;;;;;;;21.10;10.97;;;12.30;99.90;;;;;;5043256;28;20219;-61
2023/05/12 04:57:42;;;;;;;20.23;11.00;;;12.30;99.90;;;;;;5044801;28;20668;-59
2023/05/12 05:00:10;;;;;;;17.93;11.00;;;12.40;99.90;;;;;;5025627;28;20264;-61
2023/05/12 05:02:37;;;;;;;20.87;11.53;;;12.40;99.90;;;;;;5039536;28;20239;-61
2023/05/12 05:05:05;;;;;;;21.37;12.30;;;12.30;99.90;;;;;;5046311;28;20253;-59
2023/05/12 05:07:32;;;;;;;19.40;10.93;;;12.40;99.90;;;;;;5044292;28;20204;-60
2023/05/12 05:09:58;;;;;;;18.87;10.60;;;12.40;99.90;;;;;;5046756;28;20211;-61
2023/05/12 05:12:25;;;;;;;21.33;12.73;;;12.40;99.90;;;;;;5045514;28;20211;-59
2023/05/12 05:14:52;;;;;;;21.80;11.90;;;12.50;99.90;;;;;;5043057;28;20277;-61
2023/05/12 05:17:19;;;;;;;25.20;12.50;;;12.50;99.90;;;;;;5043579;28;20758;-61
2023/05/12 05:19:46;;;;;;;25.07;11.93;;;12.50;99.90;;;;;;5046535;28;21127;-61
2023/05/12 05:22:25;;;;;;;23.13;11.87;;;12.50;99.90;;;;;;5045092;28;20197;-63
2023/05/12 05:24:52;;;;;;;23.50;13.00;;;12.50;99.90;;;;;;5045500;28;20213;-61
2023/05/12 05:27:18;;;;;;;22.87;12.23;;;12.50;99.90;;;;;;5043634;28;20213;-60
2023/05/12 05:29:45;;;;;;;22.43;12.53;;;12.50;99.90;;;;;;5044852;28;20263;-61
2023/05/12 05:32:12;;;;;;;21.93;12.07;;;12.60;99.90;;;;;;5044111;28;20323;-60
2023/05/12 05:34:39;;;;;;;22.43;12.97;;;12.60;99.90;;;;;;5044035;28;21435;-61
2023/05/12 05:37:06;;;;;;;24.83;13.60;;;12.60;99.90;;;;;;5035346;28;20260;-61
2023/05/12 05:39:33;;;;;;;27.40;14.20;;;12.60;99.90;;;;;;5038129;28;21988;-58
2023/05/12 05:41:59;;;;;;;21.50;12.77;;;12.60;99.90;;;;;;5037032;28;20204;-61
2023/05/12 05:44:26;;;;;;;27.30;14.47;;;12.70;99.90;;;;;;5034780;28;20224;-61
2023/05/12 05:46:53;;;;;;;24.57;13.93;;;12.70;99.90;;;;;;5038810;28;20213;-61
2023/05/12 05:49:20;;;;;;;25.73;13.43;;;12.80;99.90;;;;;;5049751;28;20295;-61
2023/05/12 05:51:47;;;;;;;22.77;13.47;;;12.80;99.90;;;;;;5038581;28;20284;-60
2023/05/12 05:54:14;;;;;;;27.27;14.63;;;12.80;99.90;;;;;;5039559;28;20224;-60
2023/05/12 05:56:40;;;;;;;27.50;14.50;;;12.90;99.90;;;;;;4677568;28;9999726;-61
2023/05/12 05:59:08;;;;;;;26.03;14.90;;;12.90;99.90;;;;;;5024791;28;20548;-61
2023/05/12 06:01:35;;;;;;;26.33;15.13;;;13.00;99.90;;;;;;5034733;28;20232;-61
2023/05/12 06:04:02;;;;;;;29.60;15.23;;;13.10;99.90;;;;;;5036807;28;20314;-59
2023/05/12 06:06:30;;;;;;;27.83;14.50;;;13.10;99.90;;;;;;5036986;28;20200;-62
2023/05/12 06:08:57;;;;;;;30.57;15.10;;;13.20;99.90;;;;;;5038712;28;20693;-61
2023/05/12 06:11:23;;;;;;;27.57;15.47;;;13.20;99.90;;;;;;5043841;28;20288;-60
2023/05/12 06:13:50;;;;;;;29.20;16.17;;;13.20;99.90;;;;;;5025868;28;20650;-59
2023/05/12 06:16:17;;;;;;;27.40;15.87;;;13.30;99.90;;;;;;5032473;28;20217;-60
2023/05/12 06:18:44;;;;;;;30.57;16.93;;;13.40;99.90;;;;;;5030900;28;20656;-59
2023/05/12 06:21:11;;;;;;;28.00;16.70;;;13.60;99.90;;;;;;5045161;28;20560;-59
2023/05/12 06:23:38;;;;;;;25.77;15.63;;;13.70;99.90;;;;;;5031931;28;20198;-61
2023/05/12 06:26:06;;;;;;;28.87;16.87;;;13.70;99.90;;;;;;5032734;28;20667;-61
2023/05/12 06:28:33;;;;;;;31.23;17.03;;;13.80;99.90;;;;;;5046211;28;20732;-61
2023/05/12 06:31:00;;;;;;;28.63;17.57;;;13.80;99.90;;;;;;5046780;28;20264;-59
2023/05/12 06:33:27;;;;;;;30.67;17.23;;;13.90;99.90;;;;;;5044875;28;20299;-59
2023/05/12 06:35:53;;;;;;;26.30;16.97;;;14.10;99.90;;;;;;5060416;28;20252;-59
2023/05/12 06:38:20;;;;;;;30.10;16.60;;;14.20;99.90;;;;;;5039037;28;20206;-59
2023/05/12 06:40:47;;;;;;;27.27;17.47;;;14.30;99.90;;;;;;5042170;28;20230;-59
2023/05/12 06:43:14;;;;;;;32.07;18.57;;;14.40;99.90;;;;;;5017736;28;20575;-59
2023/05/12 06:45:43;;;;;;;27.60;18.43;;;14.50;99.90;;;;;;5044827;28;20230;-59
2023/05/12 06:48:10;;;;;;;30.30;18.00;;;14.60;99.90;;;;;;5041752;28;20237;-59
2023/05/12 06:50:37;;;;;;;25.23;15.60;;;14.60;99.90;;;;;;5043805;28;20304;-59
2023/05/12 06:53:06;;;;;;;26.90;16.23;;;14.60;99.90;;;;;;5044245;28;20197;-60
2023/05/12 06:55:33;;;;;;;24.77;16.50;;;14.70;99.90;;;;;;5042169;28;20227;-60
2023/05/12 06:58:00;;;;;;;23.70;15.43;;;14.60;99.90;;;;;;5039712;28;20224;-60
2023/05/12 07:00:27;;;;;;;25.53;16.13;;;14.60;99.90;;;;;;5037559;28;20229;-60
2023/05/12 07:02:54;;;;;;;21.90;15.27;;;14.60;99.90;;;;;;5035932;28;20217;-61
2023/05/12 07:05:21;;;;;;;19.77;13.63;;;14.60;99.90;;;;;;5037946;28;20277;-63
2023/05/12 07:07:49;;;;;;;22.23;14.90;;;14.60;99.90;;;;;;5032963;28;20210;-60
2023/05/12 07:10:16;;;;;;;20.77;14.43;;;14.70;99.90;;;;;;5027107;28;20542;-61
2023/05/12 07:12:42;;;;;;;21.43;14.47;;;14.80;99.90;;;;;;5027129;28;20364;-61
2023/05/12 07:15:10;;;;;;;21.77;14.63;;;14.90;99.90;;;;;;5028798;28;20213;-61
2023/05/12 07:17:37;;;;;;;18.83;13.83;;;15.00;99.90;;;;;;5017687;28;20260;-61
2023/05/12 07:20:04;;;;;;;17.30;12.50;;;15.10;99.90;;;;;;5036138;28;20214;-60
2023/05/12 07:22:31;;;;;;;16.10;12.37;;;15.10;99.90;;;;;;5031520;28;21327;-60
2023/05/12 07:24:58;;;;;;;19.37;12.77;;;15.00;99.90;;;;;;5014466;28;20530;-61
2023/05/12 07:27:25;;;;;;;15.47;11.33;;;15.10;99.90;;;;;;5025836;28;20212;-60
2023/05/12 07:29:52;;;;;;;16.50;11.83;;;15.20;99.90;;;;;;5028377;28;20236;-65
2023/05/12 07:32:19;;;;;;;14.03;11.60;;;15.30;99.90;;;;;;5033034;28;20260;-61
2023/05/12 07:34:47;;;;;;;15.47;11.87;;;15.30;99.90;;;;;;5031235;28;20214;-60
2023/05/12 07:37:14;;;;;;;15.87;12.10;;;15.50;99.90;;;;;;5010623;28;20210;-60
2023/05/12 07:39:40;;;;;;;13.47;11.27;;;15.70;99.90;;;;;;5018306;28;20208;-60
2023/05/12 07:42:08;;;;;;;12.17;10.67;;;15.60;99.90;;;;;;5032376;28;20751;-61
2023/05/12 07:44:35;;;;;;;13.37;11.33;;;15.60;99.90;;;;;;5023847;28;20292;-62
2023/05/12 07:47:02;;;;;;;12.50;9.63;;;15.60;99.90;;;;;;5041557;28;20242;-61
2023/05/12 07:49:28;;;;;;;11.07;9.63;;;15.70;99.90;;;;;;5036471;28;20253;-61
2023/05/12 07:51:55;;;;;;;11.70;8.83;;;15.90;99.90;;;;;;5041716;28;20232;-59
2023/05/12 07:54:23;;;;;;;10.53;8.73;;;16.00;99.90;;;;;;5035512;28;20256;-60
2023/05/12 07:56:50;;;;;;;17.37;8.77;;;16.30;99.90;;;;;;5033767;28;20225;-60
2023/05/12 07:59:17;;;;;;;9.20;7.10;;;16.30;99.90;;;;;;5033467;28;20208;-60
2023/05/12 08:01:46;;;;;;;9.50;6.30;;;16.50;99.90;;;;;;5040528;28;20294;-60
2023/05/12 08:04:13;;;;;;;8.93;7.07;;;16.70;99.90;;;;;;5031784;28;20201;-60
2023/05/12 08:06:40;;;;;;;7.40;6.70;;;16.70;99.90;;;;;;5032740;28;20253;-60
2023/05/12 08:09:07;;;;;;;7.73;5.70;;;16.80;99.90;;;;;;5031747;28;20219;-63
2023/05/12 08:11:34;;;;;;;7.07;6.37;;;16.90;99.90;;;;;;5033886;28;20705;-60
2023/05/12 08:14:01;;;;;;;6.80;5.80;;;17.10;99.90;;;;;;5033188;28;20237;-60
2023/05/12 08:16:28;;;;;;;9.67;6.53;;;17.00;99.90;;;;;;5035520;28;20288;-60
2023/05/12 08:18:55;;;;;;;6.77;5.70;;;17.10;99.90;;;;;;5041965;28;21205;-61
2023/05/12 08:21:22;;;;;;;6.53;5.87;;;17.10;99.90;;;;;;5034724;28;20208;-60
2023/05/12 08:23:49;;;;;;;7.07;5.30;;;17.00;99.90;;;;;;5026126;28;20227;-60
2023/05/12 08:26:16;;;;;;;5.37;4.47;;;17.20;99.90;;;;;;5034597;28;20208;-60
2023/05/12 08:28:43;;;;;;;5.77;4.47;;;17.30;99.90;;;;;;5025138;28;20625;-60
2023/05/12 08:31:10;;;;;;;4.33;3.93;;;17.20;99.90;;;;;;5034430;28;20218;-60
2023/05/12 08:33:37;;;;;;;4.60;3.77;;;17.00;99.90;;;;;;5040268;28;20569;-60
2023/05/12 08:36:04;;;;;;;4.30;3.83;;;17.00;99.90;;;;;;5036793;28;20198;-60
2023/05/12 08:38:31;;;;;;;4.10;3.70;;;17.10;99.90;;;;;;5041200;28;20197;-60
2023/05/12 08:41:10;;;;;;;5.60;3.70;;;16.90;99.90;;;;;;5045022;28;20249;-60
2023/05/12 08:43:42;;;;;;;4.30;3.90;;;16.90;99.90;;;;;;5042128;28;20237;-61
2023/05/12 08:46:11;;;;;;;5.23;3.80;;;17.00;99.90;;;;;;5045900;28;20252;-60
2023/05/12 08:48:39;;;;;;;3.90;3.43;;;17.00;99.90;;;;;;5044295;28;20214;-60
2023/05/12 08:51:11;;;;;;;4.27;3.83;;;17.20;99.90;;;;;;5041101;28;20215;-60
2023/05/12 08:53:40;;;;;;;4.63;4.10;;;17.60;99.90;;;;;;5026198;28;20223;-60
2023/05/12 08:56:10;;;;;;;3.67;3.27;;;17.80;99.90;;;;;;5043857;28;20227;-60
2023/05/12 08:58:44;;;;;;;4.00;3.50;;;17.80;99.90;;;;;;5044109;28;20203;-60
2023/05/12 09:01:13;;;;;;;4.63;3.93;;;17.80;99.90;;;;;;5042952;28;20213;-60
2023/05/12 09:03:41;;;;;;;3.57;3.27;;;17.60;99.90;;;;;;5044057;28;20202;-60
2023/05/12 09:06:10;;;;;;;3.93;3.50;;;17.60;99.90;;;;;;5034568;28;20928;-60
2023/05/12 09:08:39;;;;;;;5.47;3.97;;;17.70;99.90;;;;;;5042338;28;20664;-61
2023/05/12 09:11:10;;;;;;;3.50;3.20;;;17.60;99.90;;;;;;5050627;28;20715;-61
2023/05/12 09:13:44;;;;;;;3.50;3.00;;;18.00;99.90;;;;;;5037372;28;20204;-60
2023/05/12 09:16:13;;;;;;;3.80;3.30;;;18.30;99.90;;;;;;5042449;28;20639;-60
2023/05/12 09:18:53;;;;;;;4.97;3.23;;;18.60;99.90;;;;;;5040461;28;20196;-61
2023/05/12 09:21:20;;;;;;;4.50;3.03;;;18.50;99.90;;;;;;5038966;28;20273;-59
2023/05/12 09:23:57;;;;;;;3.50;2.30;;;18.30;99.90;;;;;;5044941;28;20597;-60
2023/05/12 09:26:25;;;;;;;3.53;2.83;;;18.20;99.90;;;;;;5042015;28;20251;-60
2023/05/12 09:28:55;;;;;;;3.27;2.73;;;18.10;99.90;;;;;;5040476;28;20213;-60
2023/05/12 09:31:23;;;;;;;2.63;2.30;;;18.20;99.90;;;;;;5041254;28;20239;-59
2023/05/12 09:33:51;;;;;;;3.30;2.47;;;18.20;99.90;;;;;;5039318;28;20272;-62
2023/05/12 09:36:20;;;;;;;2.97;2.40;;;18.60;99.90;;;;;;5043117;28;20258;-60
2023/05/12 09:39:03;;;;;;;2.50;2.30;;;18.70;99.90;;;;;;5047270;28;20292;-60
2023/05/12 09:41:41;;;;;;;4.40;2.43;;;18.90;99.90;;;;;;5045998;28;20228;-60
2023/05/12 09:44:09;;;;;;;4.13;2.50;;;18.80;99.90;;;;;;5046481;28;20687;-60
2023/05/12 09:46:38;;;;;;;3.30;2.60;;;18.80;99.90;;;;;;5046368;28;20290;-60
2023/05/12 09:49:05;;;;;;;3.83;2.90;;;18.80;99.90;;;;;;5044249;28;20237;-60
2023/05/12 09:51:32;;;;;;;3.40;2.80;;;18.70;99.90;;;;;;5045108;28;20216;-60
2023/05/12 09:53:59;;;;;;;5.73;3.00;;;18.70;99.90;;;;;;5060010;28;20215;-60
2023/05/12 09:56:28;;;;;;;10.13;2.73;;;19.00;99.90;;;;;;5045048;28;20261;-60
2023/05/12 09:58:56;;;;;;;3.33;2.40;;;19.10;99.90;;;;;;5036814;28;20854;-60
2023/05/12 10:01:25;;;;;;;7.17;3.10;;;19.30;99.90;;;;;;5044865;28;20215;-60
2023/05/12 10:03:55;;;;;;;4.27;2.37;;;19.60;99.90;;;;;;5039997;28;20224;-60
2023/05/12 10:06:29;;;;;;;4.60;3.10;;;19.50;99.90;;;;;;5044349;28;20236;-60
2023/05/12 10:09:15;;;;;;;3.07;2.20;;;19.60;99.90;;;;;;5050016;28;20277;-60
2023/05/12 10:11:43;;;;;;;2.20;2.00;;;19.70;99.90;;;;;;5049483;28;20220;-60
2023/05/12 10:14:11;;;;;;;2.20;2.00;;;19.60;99.90;;;;;;5050317;28;20243;-60
2023/05/12 10:16:40;;;;;;;4.67;2.33;;;19.20;99.90;;;;;;5039985;28;20287;-60
2023/05/12 10:19:09;;;;;;;1.90;1.70;;;19.10;99.90;;;;;;5049719;28;20221;-60
2023/05/12 10:21:38;;;;;;;2.97;2.17;;;19.30;99.90;;;;;;5049071;28;20722;-60
2023/05/12 10:24:06;;;;;;;2.37;2.17;;;19.30;99.90;;;;;;5050221;28;20208;-60
2023/05/12 10:26:34;;;;;;;2.73;2.10;;;19.10;99.90;;;;;;5050053;28;20246;-60
2023/05/12 10:29:01;;;;;;;2.63;2.00;;;18.90;99.90;;;;;;5042742;28;20722;-60
2023/05/12 10:31:29;;;;;;;3.80;2.13;;;19.20;99.90;;;;;;5051083;28;20243;-60
2023/05/12 10:34:00;;;;;;;2.23;2.03;;;19.30;99.90;;;;;;5050440;28;20713;-60
2023/05/12 10:36:27;;;;;;;2.60;2.30;;;19.50;99.90;;;;;;5045969;28;20196;-60
2023/05/12 10:38:55;;;;;;;2.23;2.03;;;19.40;99.90;;;;;;4676428;28;9999673;-61
2023/05/12 10:41:33;;;;;;;3.53;1.83;;;19.30;99.90;;;;;;5033456;28;20208;-60
2023/05/12 10:44:00;;;;;;;2.37;2.17;;;19.20;99.90;;;;;;5058703;28;20204;-60
2023/05/12 10:46:27;;;;;;;3.23;1.90;;;19.30;99.90;;;;;;5038163;28;20280;-60
2023/05/12 10:49:09;;;;;;;5.30;2.23;;;19.20;99.90;;;;;;5047635;28;20199;-60
2023/05/12 10:51:36;;;;;;;2.30;2.10;;;19.00;99.90;;;;;;5038243;28;20244;-60
2023/05/12 10:54:06;;;;;;;3.43;2.30;;;19.00;99.90;;;;;;5035498;28;20215;-60
2023/05/12 10:56:35;;;;;;;7.73;3.23;;;19.00;99.90;;;;;;5035655;28;20312;-60
2023/05/12 10:59:27;;;;;;;1.50;1.40;;;18.90;99.90;;;;;;5030965;28;20571;-60
2023/05/12 11:01:59;;;;;;;1.90;1.70;;;19.10;99.90;;;;;;5033360;28;20208;-60
2023/05/12 11:04:45;;;;;;;2.50;1.70;;;19.40;99.90;;;;;;5049460;28;20913;-60
2023/05/12 11:07:15;;;;;;;2.37;1.97;;;19.50;99.90;;;;;;5046065;28;20710;-60
2023/05/12 11:09:45;;;;;;;2.13;1.90;;;19.40;99.90;;;;;;5037957;28;20596;-60
2023/05/12 11:12:27;;;;;;;2.83;1.93;;;19.40;99.90;;;;;;5038521;28;20214;-60
2023/05/12 11:14:54;;;;;;;2.07;1.80;;;19.30;99.90;;;;;;5042458;28;20196;-60
2023/05/12 11:17:21;;;;;;;3.33;2.27;;;19.40;99.90;;;;;;5031617;28;20200;-60
2023/05/12 11:19:49;;;;;;;1.97;1.83;;;19.60;99.90;;;;;;5031619;28;20209;-60
2023/05/12 11:22:18;;;;;;;2.30;2.10;;;19.60;99.90;;;;;;5048033;28;20575;-60
2023/05/12 11:24:47;;;;;;;2.67;2.13;;;19.10;99.90;;;;;;5039817;28;20543;-60
2023/05/12 11:27:16;;;;;;;2.60;1.97;;;18.90;99.90;;;;;;5038446;28;20805;-60
2023/05/12 11:29:54;;;;;;;4.87;2.30;;;18.90;99.90;;;;;;5036682;28;20215;-60
2023/05/12 11:32:20;;;;;;;4.10;2.10;;;19.00;99.90;;;;;;5035033;28;20246;-60
2023/05/12 11:34:47;;;;;;;2.57;1.90;;;18.90;99.90;;;;;;5036771;28;20204;-60
2023/05/12 11:37:14;;;;;;;1.90;1.70;;;19.00;99.90;;;;;;5046425;28;20273;-60
2023/05/12 11:39:41;;;;;;;2.87;2.30;;;19.30;99.90;;;;;;5050916;28;20575;-60
2023/05/12 11:42:09;;;;;;;2.47;2.13;;;19.60;99.90;;;;;;5050618;28;20297;-60
2023/05/12 11:44:49;;;;;;;2.47;2.27;;;20.00;99.90;;;;;;5037243;28;20663;-62
2023/05/12 11:47:18;;;;;;;4.20;1.97;;;20.30;99.90;;;;;;5041030;28;20580;-60
2023/05/12 11:49:46;;;;;;;2.57;2.37;;;20.30;99.90;;;;;;5037470;28;20226;-60
2023/05/12 11:52:14;;;;;;;1.97;1.80;;;20.10;99.90;;;;;;5041013;28;20575;-61
2023/05/12 11:54:52;;;;;;;1.77;1.67;;;20.40;99.90;;;;;;5026340;28;20287;-61
2023/05/12 11:57:30;;;;;;;2.50;2.27;;;20.80;99.90;;;;;;5038236;28;20198;-60
2023/05/12 12:00:08;;;;;;;3.70;2.27;;;21.10;99.90;;;;;;5035336;28;20234;-60
2023/05/12 12:02:42;;;;;;;5.33;2.80;;;21.30;99.90;;;;;;5038932;28;20233;-64
2023/05/12 12:05:19;;;;;;;4.30;2.77;;;21.10;99.90;;;;;;5038886;28;20223;-64
2023/05/12 12:07:47;;;;;;;3.77;2.57;;;21.00;99.90;;;;;;5022443;28;20828;-63
2023/05/12 12:10:15;;;;;;;4.30;2.33;;;21.20;99.90;;;;;;5035517;28;20862;-63
2023/05/12 12:12:44;;;;;;;2.77;1.90;;;21.40;99.90;;;;;;5046064;28;20243;-63
2023/05/12 12:15:11;;;;;;;2.73;2.10;;;21.60;99.90;;;;;;5045708;28;20239;-64
2023/05/12 12:17:39;;;;;;;2.50;2.30;;;21.30;99.90;;;;;;5044933;28;20226;-64
2023/05/12 12:20:07;;;;;;;4.37;2.80;;;20.90;99.90;;;;;;4696963;28;10000489;-63
2023/05/12 12:22:35;;;;;;;5.07;2.70;;;20.60;99.90;;;;;;5032443;28;20199;-63
2023/05/12 12:25:02;;;;;;;5.60;2.30;;;20.70;99.90;;;;;;5039810;28;20222;-62
2023/05/12 12:27:29;;;;;;;2.30;2.10;;;21.20;99.90;;;;;;5047103;28;20675;-62
2023/05/12 12:29:56;;;;;;;2.73;2.20;;;21.40;99.90;;;;;;5044926;28;20885;-63
2023/05/12 12:32:23;;;;;;;2.60;2.40;;;21.60;99.90;;;;;;5045399;28;20683;-62
2023/05/12 12:34:51;;;;;;;2.50;2.27;;;21.50;99.90;;;;;;5043342;28;20199;-63
2023/05/12 12:37:18;;;;;;;3.00;2.27;;;21.60;99.90;;;;;;5044031;28;20717;-62
2023/05/12 12:39:46;;;;;;;4.93;2.40;;;21.60;99.90;;;;;;5042831;28;20915;-63
2023/05/12 12:42:14;;;;;;;5.93;2.43;;;21.10;99.90;;;;;;5044377;28;20205;-62
2023/05/12 12:44:41;;;;;;;2.30;2.10;;;21.40;99.90;;;;;;5040189;28;20532;-63
2023/05/12 12:47:08;;;;;;;4.37;2.17;;;21.20;99.90;;;;;;5039822;28;20211;-63